Time;durP1;ratioP1;P1;durP2;ratioP2;P2;SDS_P1;SDS_P2;PMS_P1;PMS_P2;Temp;Humidity;BMP_temperature;BMP_pressure;BME280_temperature;BME280_humidity;BME280_pressure;Samples;Min_cycle;Max_cycle;Signal;HPM_P1;HPM_P2
2023/12/24 00:00:03;;;;;;;;;;;;;;;9.43;81.82;100097.97;5075648;28;20132;-77
2023/12/24 00:03:07;;;;;;;1.13;0.40;;;;;;;9.41;82.10;100104.19;5075059;28;20062;-77
2023/12/24 00:06:11;;;;;;;2.00;0.63;;;;;;;9.39;81.80;100096.47;5074912;28;20098;-78
2023/12/24 00:09:14;;;;;;;;;;;;;;;9.39;82.11;100091.25;5075342;28;20106;-78
2023/12/24 00:12:17;;;;;;;2.85;0.32;;;;;;;9.42;82.34;100088.47;5074978;28;19962;-78
2023/12/24 00:15:21;;;;;;;0.70;0.20;;;;;;;9.42;82.81;100085.84;5074728;28;20095;-75
2023/12/24 00:18:24;;;;;;;;;;;;;;;9.43;82.63;100097.13;5075260;28;20043;-75
2023/12/24 00:21:27;;;;;;;2.70;0.13;;;;;;;9.43;83.17;100099.75;5074859;28;20401;-75
2023/12/24 00:24:32;;;;;;;1.98;0.22;;;;;;;9.42;83.25;100091.06;5074737;28;20042;-75
2023/12/24 00:27:35;;;;;;;0.60;0.20;;;;;;;9.39;83.71;100091.25;5074658;28;20052;-75
2023/12/24 00:30:38;;;;;;;1.17;0.20;;;;;;;9.42;83.91;100100.69;5073788;28;20190;-75
2023/12/24 00:33:42;;;;;;;1.45;0.32;;;;;;;9.42;83.75;100095.47;5074581;28;20039;-75
2023/12/24 00:36:45;;;;;;;;;;;;;;;9.39;84.00;100093.84;5074015;28;20043;-75
2023/12/24 00:39:48;;;;;;;1.23;0.30;;;;;;;9.45;83.72;100097.91;5073513;28;20013;-75
2023/12/24 00:42:51;;;;;;;1.83;0.22;;;;;;;9.42;83.51;100111.94;5074331;28;20062;-74
2023/12/24 00:45:55;;;;;;;2.78;0.70;;;;;;;9.47;83.75;100093.41;5073392;28;20421;-75
2023/12/24 00:48:59;;;;;;;1.55;0.20;;;;;;;9.47;83.43;100094.25;5074237;28;20043;-75
2023/12/24 00:52:03;;;;;;;2.20;0.30;;;;;;;9.47;83.81;100096.88;5073522;28;20079;-75
2023/12/24 00:55:08;;;;;;;0.77;0.20;;;;;;;9.48;83.23;100098.56;5073231;28;20069;-75
2023/12/24 00:58:12;;;;;;;1.27;0.30;;;;;;;9.46;83.30;100108.25;5061662;28;20139;-75
2023/12/24 01:01:16;;;;;;;2.35;0.75;;;;;;;9.53;82.95;100120.03;5061866;28;20048;-75
2023/12/24 01:04:20;;;;;;;0.35;0.10;;;;;;;9.57;82.62;100091.16;5073379;28;20067;-75
2023/12/24 01:07:24;;;;;;;1.15;0.20;;;;;;;9.52;83.07;100107.06;5061720;28;20046;-75
2023/12/24 01:10:27;;;;;;;0.82;0.15;;;;;;;9.53;82.77;100099.16;5072962;28;20144;-75
2023/12/24 01:13:30;;;;;;;1.77;0.50;;;;;;;9.57;82.76;100118.09;5073100;28;20055;-75
2023/12/24 01:16:39;;;;;;;0.30;0.10;;;;;;;9.63;82.66;100114.31;5073468;28;20067;-75
2023/12/24 01:19:43;;;;;;;1.88;0.20;;;;;;;9.64;81.84;100087.28;5073328;28;20052;-75
2023/12/24 01:22:47;;;;;;;1.23;0.30;;;;;;;9.61;81.66;100090.91;5073329;28;20466;-75
2023/12/24 01:25:51;;;;;;;0.60;0.10;;;;;;;9.58;82.14;100105.91;5073511;28;20128;-76
2023/12/24 01:28:54;;;;;;;1.58;0.17;;;;;;;9.60;81.74;100088.38;5072879;28;20051;-76
2023/12/24 01:31:58;;;;;;;0.73;0.10;;;;;;;9.63;81.56;100098.66;5072792;28;20124;-76
2023/12/24 01:35:01;;;;;;;;;;;;;;;9.63;81.64;100116.91;5073780;28;20093;-76
2023/12/24 01:38:05;;;;;;;2.22;0.28;;;;;;;9.68;81.54;100102.69;5073149;28;20388;-76
2023/12/24 01:41:08;;;;;;;1.58;0.20;;;;;;;9.67;81.18;100105.41;5072346;28;20051;-76
2023/12/24 01:44:11;;;;;;;0.32;0.10;;;;;;;9.70;81.67;100098.25;5073201;28;20043;-75
2023/12/24 01:47:15;;;;;;;;;;;;;;;9.66;81.48;100095.88;5072967;28;20059;-75
2023/12/24 01:50:19;;;;;;;;;;;;;;;9.68;81.17;100107.91;5072645;28;19966;-75
2023/12/24 01:53:22;;;;;;;0.98;0.20;;;;;;;9.67;81.59;100121.91;5073204;28;19919;-75
2023/12/24 01:56:26;;;;;;;1.45;0.30;;;;;;;9.64;82.34;100089.91;5073195;28;20047;-75
2023/12/24 01:59:30;;;;;;;1.80;0.22;;;;;;;9.64;82.75;100097.75;5072140;28;20040;-75
2023/12/24 02:02:34;;;;;;;0.98;0.20;;;;;;;9.64;82.79;100105.56;5071988;28;20135;-75
2023/12/24 02:05:37;;;;;;;0.85;0.15;;;;;;;9.66;83.29;100116.75;5071991;28;20047;-75
2023/12/24 02:08:40;;;;;;;2.20;0.10;;;;;;;9.61;84.38;100110.97;5072055;28;20460;-75
2023/12/24 02:11:44;;;;;;;;;;;;;;;9.55;84.82;100117.34;5072487;28;20089;-75
2023/12/24 02:14:47;;;;;;;1.45;0.20;;;;;;;9.53;85.22;100114.81;5071745;28;19919;-75
2023/12/24 02:17:51;;;;;;;;;;;;;;;9.55;84.39;100112.13;5072375;28;20079;-75
2023/12/24 02:21:05;;;;;;;0.90;0.10;;;;;;;9.57;85.03;100105.03;5072784;28;19919;-75
2023/12/24 02:24:08;;;;;;;1.75;0.22;;;;;;;9.53;85.04;100112.19;5072742;28;20059;-75
2023/12/24 02:27:42;;;;;;;1.55;0.40;;;;;;;9.50;84.92;100114.97;5072649;28;20039;-75
2023/12/24 02:30:50;;;;;;;0.65;0.20;;;;;;;9.48;85.78;100098.56;5071876;28;20043;-75
2023/12/24 02:33:57;;;;;;;1.50;0.45;;;;;;;9.48;85.66;100085.53;5075388;28;20093;-75
2023/12/24 02:37:01;;;;;;;1.63;0.30;;;;;;;9.47;84.85;100093.41;5076880;28;20120;-75
2023/12/24 02:40:06;;;;;;;2.42;0.30;;;;;;;9.53;83.48;100093.09;5076648;28;20055;-75
2023/12/24 02:43:09;;;;;;;1.20;0.20;;;;;;;9.57;82.80;100091.16;5075748;28;20079;-76
2023/12/24 02:46:12;;;;;;;;;;;;;;;9.61;82.18;100070.03;5077056;28;20047;-75
2023/12/24 02:49:15;;;;;;;1.52;0.35;;;;;;;9.63;81.63;100057.72;5076774;28;19919;-75
2023/12/24 02:52:18;;;;;;;2.00;0.43;;;;;;;9.66;81.07;100064.53;5076652;28;20039;-75
2023/12/24 02:55:21;;;;;;;;;;;;;;;9.64;80.55;100045.53;5076858;28;20086;-75
2023/12/24 02:58:24;;;;;;;1.20;0.35;;;;;;;9.65;79.95;100041.97;5076628;28;19946;-75
2023/12/24 03:01:28;;;;;;;1.55;0.45;;;;;;;9.63;80.20;100025.56;5075395;28;20105;-75
2023/12/24 03:04:32;;;;;;;2.08;0.40;;;;;;;9.60;79.82;100021.34;5075395;28;20118;-74
2023/12/24 03:07:35;;;;;;;2.05;0.52;;;;;;;9.62;79.62;100008.22;5076125;28;20043;-75
2023/12/24 03:10:39;;;;;;;;;;;;;;;9.63;79.32;99995.06;5076591;28;20047;-74
2023/12/24 03:13:42;;;;;;;2.58;0.32;;;;;;;9.64;78.83;99981.09;5075222;28;20049;-75
2023/12/24 03:16:45;;;;;;;2.63;0.75;;;;;;;9.61;79.47;99988.28;5074975;28;20425;-75
2023/12/24 03:19:48;;;;;;;;;;;;;;;9.65;79.17;99989.78;5076418;28;20042;-75
2023/12/24 03:22:52;;;;;;;1.45;0.45;;;;;;;9.67;78.72;99991.38;5075914;28;20289;-75
2023/12/24 03:25:56;;;;;;;1.20;0.30;;;;;;;9.70;78.85;99980.75;5075796;28;20517;-75
2023/12/24 03:29:00;;;;;;;1.73;0.50;;;;;;;9.68;78.39;99989.59;5074965;28;20094;-75
2023/12/24 03:32:04;;;;;;;4.47;0.60;;;;;;;9.66;78.59;99981.00;5075667;28;20518;-75
2023/12/24 03:35:08;;;;;;;2.35;0.63;;;;;;;9.65;78.45;99985.38;5075609;28;20086;-75
2023/12/24 03:38:11;;;;;;;2.13;0.68;;;;;;;9.62;78.65;99976.91;5075495;28;20043;-75
2023/12/24 03:41:15;;;;;;;3.15;0.95;;;;;;;9.66;78.65;99962.72;5074667;28;20039;-75
2023/12/24 03:44:18;;;;;;;2.65;0.40;;;;;;;9.70;78.57;99964.22;5074373;28;20059;-75
2023/12/24 03:47:21;;;;;;;;;;;;;;;9.65;78.99;99961.06;5075065;28;20478;-75
2023/12/24 03:50:25;;;;;;;2.90;0.47;;;;;;;9.74;78.72;99961.38;5075498;28;19919;-75
2023/12/24 03:53:28;;;;;;;1.77;0.45;;;;;;;9.72;78.60;99960.59;5075353;28;20492;-75
2023/12/24 03:56:31;;;;;;;1.65;0.50;;;;;;;9.68;78.88;99969.56;5075209;28;20098;-76
2023/12/24 03:59:35;;;;;;;;;;;;;;;9.67;79.33;99959.22;5075652;28;20043;-76
2023/12/24 04:02:37;;;;;;;4.03;0.40;;;;;;;9.69;79.79;99952.13;5074262;28;19939;-76
2023/12/24 04:05:41;;;;;;;2.85;0.93;;;;;;;9.66;80.06;99936.63;5075119;28;20093;-76
2023/12/24 04:08:46;;;;;;;0.95;0.20;;;;;;;9.71;79.95;99947.66;5075073;28;20047;-76
2023/12/24 04:11:50;;;;;;;2.15;0.35;;;;;;;9.73;80.43;99930.13;5074141;28;20075;-76
2023/12/24 04:14:54;;;;;;;1.33;0.30;;;;;;;9.66;81.63;99941.84;5074003;28;20520;-76
2023/12/24 04:17:58;;;;;;;2.78;0.40;;;;;;;9.62;81.68;99946.41;5074902;28;20523;-76
2023/12/24 04:21:01;;;;;;;;;;;;;;;9.63;82.30;99947.25;5074573;28;20101;-76
2023/12/24 04:24:04;;;;;;;0.50;0.20;;;;;;;9.63;83.09;99947.25;5073949;28;19978;-76
2023/12/24 04:27:08;;;;;;;1.13;0.32;;;;;;;9.63;83.44;99944.63;5073868;28;20106;-76
2023/12/24 04:30:11;;;;;;;;;;;;;;;9.60;83.61;99950.88;5075143;28;20040;-76
2023/12/24 04:33:15;;;;;;;1.08;0.20;;;;;;;9.60;84.13;99953.47;5073758;28;20434;-75
2023/12/24 04:36:19;;;;;;;0.80;0.28;;;;;;;9.53;85.22;99947.78;5073656;28;20047;-76
2023/12/24 04:39:24;;;;;;;2.05;0.80;;;;;;;9.41;86.60;99950.22;5074386;28;20101;-76
2023/12/24 04:42:27;;;;;;;2.42;0.60;;;;;;;9.38;89.20;99945.19;5073476;28;20086;-76
2023/12/24 04:45:30;;;;;;;;;;;;;;;9.27;89.82;99956.25;5073949;28;20106;-76
2023/12/24 04:48:34;;;;;;;0.88;0.30;;;;;;;9.29;91.22;99950.00;5073457;28;19965;-76
2023/12/24 04:51:38;;;;;;;1.42;0.30;;;;;;;9.25;91.84;99958.06;5074196;28;20093;-76
2023/12/24 04:54:41;;;;;;;0.73;0.20;;;;;;;9.21;92.40;99961.78;5073489;28;20064;-76
2023/12/24 04:57:46;;;;;;;3.83;0.20;;;;;;;9.15;93.24;99957.75;5074103;28;20467;-76
2023/12/24 05:00:49;;;;;;;;;;;;;;;9.18;92.63;99952.38;5074540;28;20047;-77
2023/12/24 05:03:52;;;;;;;2.63;0.30;;;;;;;9.18;93.52;99954.13;5073082;28;19923;-77
2023/12/24 05:06:56;;;;;;;0.90;0.40;;;;;;;9.11;95.43;99947.59;5073261;28;20109;-77
2023/12/24 05:10:01;;;;;;;1.45;0.30;;;;;;;9.14;95.38;99950.03;5072968;28;20055;-77
2023/12/24 05:13:04;;;;;;;1.45;0.50;;;;;;;9.04;95.88;99947.94;5072903;28;20036;-77
2023/12/24 05:16:08;;;;;;;0.43;0.20;;;;;;;9.02;96.54;99943.72;5072638;28;20052;-77
2023/12/24 05:19:11;;;;;;;;;;;;;;;8.99;97.43;99960.34;5074107;28;20078;-77
2023/12/24 05:22:14;;;;;;;2.37;0.37;;;;;;;8.94;98.58;99951.97;5073503;28;19978;-77
2023/12/24 05:25:20;;;;;;;1.40;0.30;;;;;;;8.97;99.31;99932.72;5073553;28;20071;-77
2023/12/24 05:28:23;;;;;;;0.32;0.10;;;;;;;8.98;99.43;99932.63;5073464;28;20043;-77
2023/12/24 05:31:26;;;;;;;1.25;0.20;;;;;;;8.96;99.84;99942.28;5073388;28;20106;-77
2023/12/24 05:34:30;;;;;;;0.52;0.20;;;;;;;8.97;100.00;99928.34;5073374;28;20047;-77
2023/12/24 05:37:33;;;;;;;;;;;;;;;8.91;100.00;99936.50;5073704;28;20093;-77
2023/12/24 05:40:36;;;;;;;2.08;0.20;;;;;;;8.91;99.46;99948.69;5073370;28;20293;-77
2023/12/24 05:43:40;;;;;;;0.85;0.20;;;;;;;8.86;100.00;99943.72;5072340;28;20039;-77
2023/12/24 05:46:43;;;;;;;0.93;0.20;;;;;;;8.87;100.00;99937.59;5073068;28;20425;-76
2023/12/24 05:49:47;;;;;;;;;;;;;;;8.90;100.00;99929.56;5073806;28;20056;-76
2023/12/24 05:52:49;;;;;;;1.47;0.40;;;;;;;8.92;100.00;99935.56;5073099;28;19919;-76
2023/12/24 05:55:53;;;;;;;;;;;;;;;8.87;100.00;99929.78;5073441;28;20048;-76
2023/12/24 05:59:13;;;;;;;0.52;0.20;;;;;;;8.87;100.00;99932.38;5069397;28;20399;-76
2023/12/24 06:02:18;;;;;;;0.47;0.20;;;;;;;8.91;99.90;99920.00;5068634;28;20044;-77
2023/12/24 06:05:21;;;;;;;0.90;0.20;;;;;;;8.87;100.00;99921.09;5069869;28;20098;-77
2023/12/24 06:08:25;;;;;;;0.30;0.10;;;;;;;8.82;100.00;99918.75;5069910;28;20134;-77
2023/12/24 06:11:29;;;;;;;0.45;0.10;;;;;;;8.83;100.00;99913.44;5069846;28;20097;-77
2023/12/24 06:14:32;;;;;;;1.65;0.30;;;;;;;8.88;100.00;99921.00;5069983;28;20097;-77
2023/12/24 06:17:35;;;;;;;0.30;0.10;;;;;;;8.80;100.00;99920.56;5069830;28;20047;-77
2023/12/24 06:20:39;;;;;;;0.50;0.20;;;;;;;8.73;100.00;99914.84;5069809;28;20075;-76
2023/12/24 06:23:42;;;;;;;;;;;;;;;8.78;100.00;99932.88;5070178;28;20047;-76
2023/12/24 06:26:45;;;;;;;1.35;0.20;;;;;;;8.81;100.00;99924.88;5069704;28;19919;-77
2023/12/24 06:29:48;;;;;;;;;;;;;;;8.73;100.00;99934.88;5070292;28;20499;-77
2023/12/24 06:32:51;;;;;;;1.08;0.15;;;;;;;8.75;100.00;99915.63;5069600;28;20417;-77
2023/12/24 06:35:54;;;;;;;;;;;;;;;8.78;100.00;99923.28;5069877;28;20047;-77
2023/12/24 06:38:57;;;;;;;1.30;0.40;;;;;;;8.88;100.00;99918.41;5069337;28;19919;-76
2023/12/24 06:42:01;;;;;;;1.55;0.55;;;;;;;8.92;100.00;99909.47;5069370;28;20128;-76
2023/12/24 06:45:04;;;;;;;3.80;1.50;;;;;;;8.83;100.00;99928.22;5069367;28;20089;-76
2023/12/24 06:48:08;;;;;;;1.25;0.22;;;;;;;8.80;100.00;99928.41;5069342;28;20074;-76
2023/12/24 06:51:11;;;;;;;2.20;1.20;;;;;;;8.77;100.00;99931.16;5069138;28;20040;-77
2023/12/24 06:54:14;;;;;;;;;;;;;;;8.75;100.00;99930.44;5069528;28;20047;-77
2023/12/24 06:57:17;;;;;;;0.60;0.10;;;;;;;8.71;100.00;99931.50;5068812;28;19966;-77
2023/12/24 07:00:20;;;;;;;0.40;0.20;;;;;;;8.72;100.00;99938.41;5069010;28;20067;-76
2023/12/24 07:03:24;;;;;;;0.88;0.30;;;;;;;8.77;100.00;99933.78;5068974;28;20128;-77
2023/12/24 07:06:27;;;;;;;0.85;0.30;;;;;;;8.83;100.00;99944.72;5068785;28;20120;-77
2023/12/24 07:09:32;;;;;;;1.63;0.47;;;;;;;8.85;100.00;99944.63;5061035;28;20400;-77
2023/12/24 07:12:35;;;;;;;3.20;2.05;;;;;;;8.69;100.00;99930.75;5055563;28;20061;-77
2023/12/24 07:15:39;;;;;;;3.60;2.00;;;;;;;8.72;100.00;99933.19;5055550;28;20511;-77
2023/12/24 07:18:42;;;;;;;;;;;;;;;8.74;100.00;99944.38;5055862;28;20480;-77
2023/12/24 07:21:45;;;;;;;1.80;0.80;;;;;;;8.85;100.00;99939.44;5055370;28;19920;-76
2023/12/24 07:24:48;;;;;;;1.10;0.40;;;;;;;8.82;100.00;99942.19;5055299;28;20047;-77
2023/12/24 07:27:52;;;;;;;;;;;;;;;8.89;100.00;99940.94;5055719;28;20063;-77
2023/12/24 07:30:55;;;;;;;0.82;0.30;;;;;;;8.99;100.00;99941.28;5055214;28;20294;-77
2023/12/24 07:33:58;;;;;;;1.83;0.55;;;;;;;8.88;100.00;99951.47;5055196;28;20063;-77
2023/12/24 07:37:02;;;;;;;1.20;0.30;;;;;;;8.98;100.00;99930.00;5054400;28;20114;-77
2023/12/24 07:40:08;;;;;;;;;;;;;;;9.01;100.00;99934.22;5055238;28;20048;-77
2023/12/24 07:43:12;;;;;;;1.65;0.60;;;;;;;9.06;100.00;99933.03;5054737;28;19955;-78
2023/12/24 07:46:15;;;;;;;1.55;0.52;;;;;;;9.21;100.00;99938.31;5054132;28;20044;-77
2023/12/24 07:49:18;;;;;;;1.42;0.40;;;;;;;9.08;100.00;99939.00;5053845;28;20174;-78
2023/12/24 07:52:21;;;;;;;;;;;;;;;9.11;100.00;99939.75;5054382;28;20425;-77
2023/12/24 07:55:25;;;;;;;0.60;0.22;;;;;;;9.32;100.00;99925.53;5054108;28;20398;-77
2023/12/24 07:58:28;;;;;;;;;;;;;;;9.11;100.00;99929.34;5054327;28;20379;-77
2023/12/24 08:01:32;;;;;;;1.80;0.77;;;;;;;9.10;100.00;99933.72;5057131;28;20383;-77
2023/12/24 08:04:35;;;;;;;1.83;0.68;;;;;;;9.18;100.00;99933.28;5062433;28;20059;-76
2023/12/24 08:07:38;;;;;;;;;;;;;;;9.37;100.00;99936.53;5063240;28;20177;-77
2023/12/24 08:10:42;;;;;;;2.75;0.45;;;;;;;9.37;100.00;99920.03;5063634;28;19923;-78
2023/12/24 08:13:45;;;;;;;0.50;0.10;;;;;;;9.26;100.00;99924.09;5063828;28;20091;-77
2023/12/24 08:16:49;;;;;;;0.65;0.10;;;;;;;9.25;100.00;99913.72;5049483;28;20099;-76
2023/12/24 08:19:54;;;;;;;2.15;0.82;;;;;;;9.24;100.00;99923.34;5055205;28;20048;-77
2023/12/24 08:22:58;;;;;;;3.17;1.42;;;;;;;9.22;100.00;99930.41;5055561;28;20432;-77
2023/12/24 08:26:01;;;;;;;;;;;;;;;9.15;100.00;99936.06;5067127;28;20056;-77
2023/12/24 08:29:04;;;;;;;1.17;0.47;;;;;;;9.20;100.00;99926.22;5059517;28;19927;-77
2023/12/24 08:32:10;;;;;;;0.52;0.10;;;;;;;9.19;100.00;99927.97;5069106;28;20072;-77
2023/12/24 08:35:14;;;;;;;0.98;0.30;;;;;;;9.28;100.00;99937.03;5053084;28;20408;-77
2023/12/24 08:38:22;;;;;;;0.75;0.30;;;;;;;9.22;100.00;99925.22;5064144;28;20042;-77
2023/12/24 08:41:26;;;;;;;0.95;0.30;;;;;;;9.09;100.00;99932.00;5060436;28;20444;-76
2023/12/24 08:44:29;;;;;;;1.27;0.35;;;;;;;9.14;100.00;99924.78;5062044;28;20101;-77
2023/12/24 08:47:33;;;;;;;1.25;0.20;;;;;;;9.15;100.00;99925.63;5062160;28;20102;-77
2023/12/24 08:50:37;;;;;;;0.80;0.20;;;;;;;9.19;100.00;99914.06;5063719;28;20522;-77
2023/12/24 08:53:42;;;;;;;1.33;0.30;;;;;;;9.21;100.00;99917.44;5062105;28;20044;-75
2023/12/24 08:56:46;;;;;;;1.50;0.30;;;;;;;9.28;100.00;99926.59;5063959;28;20044;-76
2023/12/24 08:59:49;;;;;;;;;;;;;;;9.34;100.00;99925.44;5063150;28;20452;-76
2023/12/24 09:02:52;;;;;;;0.60;0.20;;;;;;;9.35;100.00;99907.09;5061611;28;19924;-73
2023/12/24 09:05:55;;;;;;;0.73;0.22;;;;;;;9.39;100.00;99912.97;5054653;28;20063;-72
2023/12/24 09:08:59;;;;;;;0.90;0.30;;;;;;;9.50;100.00;99907.97;5057975;28;20052;-75
2023/12/24 09:12:03;;;;;;;2.83;1.42;;;;;;;9.45;100.00;99912.63;5053668;28;20083;-76
2023/12/24 09:15:16;;;;;;;4.95;3.40;;;;;;;9.53;100.00;99926.88;5059065;28;20079;-77
2023/12/24 09:18:19;;;;;;;4.05;1.02;;;;;;;9.53;100.00;99921.66;5063763;28;20105;-76
2023/12/24 09:21:22;;;;;;;;;;;;;;;9.51;99.43;99912.28;5061582;28;20039;-77
2023/12/24 09:24:25;;;;;;;2.90;1.27;;;;;;;9.46;100.00;99927.34;5049685;28;19959;-76
2023/12/24 09:27:29;;;;;;;1.20;0.30;;;;;;;9.40;100.00;99918.09;5054897;28;20086;-76
2023/12/24 09:30:32;;;;;;;;;;;;;;;9.43;100.00;99925.75;5054595;28;20097;-78
2023/12/24 09:33:35;;;;;;;5.72;3.63;;;;;;;9.38;100.00;99942.56;5047386;28;20383;-75
2023/12/24 09:36:39;;;;;;;2.10;0.50;;;;;;;9.41;100.00;99937.19;5041323;28;20551;-72
2023/12/24 09:39:43;;;;;;;1.92;0.38;;;;;;;9.36;100.00;99947.91;5041721;28;20449;-77
2023/12/24 09:42:47;;;;;;;0.98;0.50;;;;;;;9.29;100.00;99949.19;5047367;28;20048;-77
2023/12/24 09:46:16;;;;;;;3.42;2.20;;;;;;;9.31;100.00;99953.34;5044170;28;20060;-79
2023/12/24 09:49:19;;;;;;;1.80;1.00;;;;;;;9.38;100.00;99937.34;5042526;28;20036;-76
2023/12/24 09:52:23;;;;;;;7.25;6.50;;;;;;;9.36;100.00;99939.22;5042011;28;20048;-79
2023/12/24 09:55:26;;;;;;;2.95;1.88;;;;;;;9.44;100.00;99934.41;5041653;28;20068;-76
2023/12/24 09:58:30;;;;;;;;;;;;;;;9.41;100.00;99943.28;5041756;28;20092;-75
2023/12/24 10:01:45;;;;;;;;;;;;;;;9.51;100.00;99933.16;5040235;28;20335;-73
2023/12/24 10:04:50;;;;;;;18.27;12.02;;;;;;;9.49;100.00;99935.00;5035536;28;19920;-75
2023/12/24 10:07:55;;;;;;;7.50;5.90;;;;;;;9.55;100.00;99940.69;5040127;28;20089;-72
2023/12/24 10:11:28;;;;;;;3.47;2.33;;;;;;;9.53;100.00;99932.09;5039321;28;20463;-74
2023/12/24 10:14:32;;;;;;;;;;;;;;;9.54;100.00;99932.97;5035396;28;20500;-75
2023/12/24 10:17:40;;;;;;;1.42;0.50;;;;;;;9.52;100.00;99927.81;5040940;28;19924;-74
2023/12/24 10:20:45;;;;;;;4.28;0.60;;;;;;;9.48;100.00;99922.88;5040442;28;20048;-75
2023/12/24 10:23:49;;;;;;;2.88;1.30;;;;;;;9.49;100.00;99935.00;5042028;28;20549;-76
2023/12/24 10:27:05;;;;;;;1.10;0.43;;;;;;;9.49;100.00;99935.00;5042601;28;20035;-72
2023/12/24 10:30:14;;;;;;;1.13;0.40;;;;;;;9.42;100.00;99916.25;5042532;28;20044;-74
2023/12/24 10:33:42;;;;;;;1.50;0.47;;;;;;;9.35;100.00;99907.09;5038939;28;20091;-74
2023/12/24 10:36:48;;;;;;;0.57;0.20;;;;;;;9.32;100.00;99900.28;5042055;28;20040;-75
2023/12/24 10:39:52;;;;;;;0.63;0.20;;;;;;;9.43;100.00;99910.09;5037791;28;20051;-77
2023/12/24 10:42:55;;;;;;;3.53;1.52;;;;;;;9.43;100.00;99920.53;5047961;28;20052;-74
2023/12/24 10:45:59;;;;;;;2.75;1.17;;;;;;;9.47;100.00;99906.38;5054591;28;20047;-74
2023/12/24 10:49:02;;;;;;;;;;;;;;;9.52;100.00;99904.34;5054891;28;20043;-74
2023/12/24 10:52:05;;;;;;;1.67;0.60;;;;;;;9.51;100.00;99897.44;5055288;28;20053;-74
2023/12/24 10:55:10;;;;;;;;;;;;;;;9.49;100.00;99909.72;5055445;28;20302;-74
2023/12/24 10:58:34;;;;;;;0.80;0.30;;;;;;;9.61;100.00;99895.16;5054922;28;20021;-74
2023/12/24 11:01:38;;;;;;;1.17;0.40;;;;;;;9.70;100.00;99885.91;5052632;28;20048;-73
2023/12/24 11:08:55;;;;;;;6.50;5.20;;;;;;;9.72;100.00;99878.84;5066908;28;20047;-74
2023/12/24 11:11:58;;;;;;;;;;;;;;;9.68;98.65;99874.75;5067420;28;20058;-74
2023/12/24 11:15:04;;;;;;;3.03;1.73;;;;;;;9.64;99.34;99891.53;5065828;28;19923;-74
2023/12/24 11:18:11;;;;;;;1.77;0.80;;;;;;;9.76;98.71;99896.00;5044235;28;20385;-74
2023/12/24 11:21:19;;;;;;;2.50;1.38;;;;;;;9.74;98.21;99898.72;5045128;28;20128;-74
2023/12/24 11:24:22;;;;;;;3.03;1.50;;;;;;;9.71;97.28;99888.44;5045561;28;20132;-75
2023/12/24 11:27:45;;;;;;;;;;;;;;;9.70;97.45;99881.56;5052804;28;20043;-73
2023/12/24 11:30:51;;;;;;;5.60;2.78;;;;;;;9.77;98.27;99880.25;5042631;28;20000;-73
2023/12/24 11:33:55;;;;;;;2.95;1.48;;;;;;;9.78;96.96;99870.66;5044285;28;20508;-73
2023/12/24 11:37:03;;;;;;;13.82;9.25;;;;;;;9.75;96.75;99852.56;5045243;28;20102;-73
2023/12/24 11:40:20;;;;;;;2.50;1.20;;;;;;;9.79;95.74;99848.81;5044079;28;20119;-72
2023/12/24 11:43:23;;;;;;;1.42;0.50;;;;;;;9.76;96.58;99834.22;5065500;28;20051;-72
2023/12/24 11:46:28;;;;;;;0.65;0.17;;;;;;;9.77;95.38;99840.25;5066944;28;20044;-72
2023/12/24 11:49:32;;;;;;;1.10;0.40;;;;;;;9.80;96.10;99828.81;5067365;28;20098;-73
2023/12/24 11:52:41;;;;;;;1.15;0.40;;;;;;;9.81;96.43;99826.09;5062900;28;20052;-73
2023/12/24 11:55:44;;;;;;;0.82;0.30;;;;;;;9.80;95.45;99821.81;5044138;28;20043;-73
2023/12/24 11:58:50;;;;;;;;;;;;;;;9.79;95.52;99822.72;5044161;28;20128;-72
2023/12/24 12:02:02;;;;;;;1.48;0.50;;;;;;;9.84;94.95;99827.69;5044510;28;20024;-72
2023/12/24 12:05:06;;;;;;;1.60;0.60;;;;;;;9.86;94.37;99805.75;5043414;28;20052;-75
2023/12/24 12:08:10;;;;;;;1.05;0.30;;;;;;;9.88;94.67;99806.50;5043911;28;20127;-75
2023/12/24 12:11:13;;;;;;;1.30;0.47;;;;;;;9.90;94.00;99819.47;5043074;28;20075;-75
2023/12/24 12:14:16;;;;;;;1.92;0.82;;;;;;;9.93;93.88;99809.69;5058985;28;20094;-74
2023/12/24 12:17:19;;;;;;;0.90;0.30;;;;;;;9.97;93.46;99808.56;5057705;28;20400;-75
2023/12/24 12:20:24;;;;;;;1.02;0.20;;;;;;;10.00;92.94;99815.38;5048041;28;20083;-74
2023/12/24 12:23:27;;;;;;;0.80;0.30;;;;;;;10.01;94.04;99807.41;5055354;28;20166;-76
2023/12/24 12:26:31;;;;;;;;;;;;;;;10.05;92.95;99807.22;5058470;28;20060;-77
2023/12/24 12:29:34;;;;;;;1.67;0.40;;;;;;;10.06;93.57;99803.72;5060644;28;19959;-75
2023/12/24 12:32:37;;;;;;;1.10;0.35;;;;;;;10.04;92.81;99805.56;5060704;28;20136;-76
2023/12/24 12:35:41;;;;;;;1.58;0.63;;;;;;;10.01;93.22;99802.19;5060404;28;20040;-74
2023/12/24 12:38:44;;;;;;;;;;;;;;;10.06;93.00;99795.88;5060059;28;20040;-74
2023/12/24 12:41:47;;;;;;;1.50;0.40;;;;;;;10.06;92.60;99793.25;5060681;28;19934;-78
2023/12/24 12:44:51;;;;;;;1.38;0.30;;;;;;;10.05;92.99;99786.34;5055565;28;20040;-74
2023/12/24 12:47:54;;;;;;;1.20;0.22;;;;;;;10.08;92.57;99801.81;5064308;28;20095;-77
2023/12/24 12:50:57;;;;;;;;;;;;;;;10.10;92.78;99782.50;5063860;28;20117;-77
2023/12/24 12:54:06;;;;;;;1.45;0.15;;;;;;;10.13;92.96;99776.25;5051494;28;20391;-77
2023/12/24 12:57:09;;;;;;;0.30;0.10;;;;;;;10.14;92.46;99772.72;5050239;28;20152;-76
2023/12/24 13:00:18;;;;;;;2.63;1.00;;;;;;;10.14;93.40;99762.25;5055871;28;20119;-75
2023/12/24 13:03:22;;;;;;;3.35;1.20;;;;;;;10.20;93.34;99754.03;5059760;28;20132;-77
2023/12/24 13:06:26;;;;;;;1.40;0.50;;;;;;;10.27;92.83;99750.13;5064737;28;20571;-77
2023/12/24 13:09:33;;;;;;;1.38;0.47;;;;;;;10.23;93.12;99764.28;5058223;28;20035;-77
2023/12/24 13:12:37;;;;;;;5.18;3.42;;;;;;;10.22;94.34;99757.41;5056171;28;20047;-75
2023/12/24 13:15:43;;;;;;;4.80;3.65;;;;;;;10.09;96.03;99761.72;5055888;28;20095;-78
2023/12/24 13:18:46;;;;;;;5.40;1.25;;;;;;;10.10;95.31;99781.69;5065355;28;20036;-78
2023/12/24 13:21:50;;;;;;;2.40;1.10;;;;;;;10.12;95.60;99787.66;5057857;28;20452;-77
2023/12/24 13:24:56;;;;;;;8.15;5.60;;;;;;;10.06;97.92;99801.09;5060476;28;20115;-78
2023/12/24 13:28:00;;;;;;;5.97;3.17;;;;;;;9.95;98.86;99801.72;5060993;28;20086;-78
2023/12/24 13:31:03;;;;;;;;;;;;;;;9.87;100.00;99804.00;5056193;28;20413;-78
2023/12/24 13:34:06;;;;;;;3.33;2.00;;;;;;;9.85;100.00;99801.47;5062571;28;20285;-78
2023/12/24 13:37:10;;;;;;;2.65;1.50;;;;;;;9.77;100.00;99788.88;5054361;28;20075;-78
2023/12/24 13:40:14;;;;;;;5.20;4.30;;;;;;;9.69;100.00;99785.03;5057112;28;20048;-78
2023/12/24 13:43:17;;;;;;;;;;;;;;;9.68;100.00;99779.00;5053417;28;20102;-75
2023/12/24 13:46:21;;;;;;;3.33;1.20;;;;;;;9.61;100.00;99802.97;5056317;28;19920;-78
2023/12/24 13:49:27;;;;;;;1.90;0.65;;;;;;;9.54;100.00;99808.53;5053120;28;20450;-78
2023/12/24 13:52:31;;;;;;;2.35;0.93;;;;;;;9.55;100.00;99802.38;5053292;28;20048;-77
2023/12/24 13:55:34;;;;;;;;;;;;;;;9.50;100.00;99812.25;5061582;28;20044;-78
2023/12/24 13:58:37;;;;;;;2.40;0.85;;;;;;;9.65;100.00;99788.78;5059702;28;19923;-77
2023/12/24 14:01:41;;;;;;;0.85;0.38;;;;;;;9.66;100.00;99787.84;5050560;28;20040;-78
2023/12/24 14:04:45;;;;;;;1.63;0.52;;;;;;;9.65;100.00;99784.41;5038335;28;20043;-78
2023/12/24 14:07:48;;;;;;;1.42;0.40;;;;;;;9.70;100.00;99792.81;5055125;28;20618;-77
2023/12/24 14:10:52;;;;;;;3.03;0.63;;;;;;;9.70;100.00;99792.81;5060151;28;20039;-79
2023/12/24 14:13:55;;;;;;;1.25;0.40;;;;;;;9.77;100.00;99793.25;5063982;28;20048;-78
2023/12/24 14:16:59;;;;;;;0.80;0.20;;;;;;;9.83;100.00;99798.13;5049687;28;20138;-77
2023/12/24 14:20:12;;;;;;;0.80;0.20;;;;;;;9.80;100.00;99787.84;5062005;28;20140;-65
2023/12/24 14:23:16;;;;;;;1.00;0.30;;;;;;;9.81;100.00;99784.31;5061007;28;20115;-66
2023/12/24 14:26:19;;;;;;;1.08;0.20;;;;;;;9.79;100.00;99786.16;5063968;28;20087;-65
2023/12/24 14:29:22;;;;;;;;;;;;;;;9.83;100.00;99811.16;5065044;28;20518;-67
2023/12/24 14:32:26;;;;;;;1.52;0.52;;;;;;;10.00;100.00;99782.25;5061796;28;20411;-77
2023/12/24 14:35:29;;;;;;;2.70;1.70;;;;;;;9.92;100.00;99779.28;5059817;28;20085;-75
2023/12/24 14:38:32;;;;;;;;;;;;;;;9.88;100.00;99785.59;5041881;28;20520;-74
2023/12/24 14:41:36;;;;;;;0.90;0.30;;;;;;;9.91;100.00;99785.41;5051623;28;19918;-76
2023/12/24 14:44:42;;;;;;;0.95;0.40;;;;;;;9.95;100.00;99796.50;5039849;28;20044;-76
2023/12/24 14:47:45;;;;;;;1.15;0.32;;;;;;;9.97;100.00;99792.03;5048405;28;20094;-76
2023/12/24 14:50:48;;;;;;;2.13;0.90;;;;;;;9.98;100.00;99801.53;5066988;28;20113;-76